sensor_id;sensor_type;location;lat;lon;timestamp;temperature;humidity
35027;DHT22;60696;51.426;6.934;2022-09-09T00:00:49;14.90;99.90
35027;DHT22;60696;51.426;6.934;2022-09-09T00:03:40;14.90;99.90
35027;DHT22;60696;51.426;6.934;2022-09-09T00:06:23;14.90;99.90
35027;DHT22;60696;51.426;6.934;2022-09-09T00:11:48;14.90;99.90
35027;DHT22;60696;51.426;6.934;2022-09-09T00:14:46;14.90;99.90
35027;DHT22;60696;51.426;6.934;2022-09-09T00:20:00;14.90;99.90
35027;DHT22;60696;51.426;6.934;2022-09-09T00:22:29;14.90;99.90
35027;DHT22;60696;51.426;6.934;2022-09-09T00:25:02;14.90;99.90
35027;DHT22;60696;51.426;6.934;2022-09-09T00:27:32;14.90;99.90
35027;DHT22;60696;51.426;6.934;2022-09-09T00:32:44;14.80;99.90
35027;DHT22;60696;51.426;6.934;2022-09-09T00:37:36;14.80;99.90
35027;DHT22;60696;51.426;6.934;2022-09-09T00:40:17;14.70;99.90
35027;DHT22;60696;51.426;6.934;2022-09-09T00:42:44;14.70;99.90
35027;DHT22;60696;51.426;6.934;2022-09-09T00:47:46;14.80;99.90
35027;DHT22;60696;51.426;6.934;2022-09-09T00:55:49;14.90;99.90
35027;DHT22;60696;51.426;6.934;2022-09-09T00:58:19;14.90;99.90
35027;DHT22;60696;51.426;6.934;2022-09-09T01:00:50;15.00;99.90
35027;DHT22;60696;51.426;6.934;2022-09-09T01:06:03;15.10;99.90
35027;DHT22;60696;51.426;6.934;2022-09-09T01:11:26;15.00;99.90
35027;DHT22;60696;51.426;6.934;2022-09-09T01:14:16;15.00;99.90
35027;DHT22;60696;51.426;6.934;2022-09-09T01:16:44;15.00;99.90
35027;DHT22;60696;51.426;6.934;2022-09-09T01:19:19;14.90;99.90
35027;DHT22;60696;51.426;6.934;2022-09-09T01:22:06;15.00;99.90
35027;DHT22;60696;51.426;6.934;2022-09-09T01:27:26;15.00;99.90
35027;DHT22;60696;51.426;6.934;2022-09-09T01:29:52;15.00;99.90
35027;DHT22;60696;51.426;6.934;2022-09-09T01:32:56;15.00;99.90
35027;DHT22;60696;51.426;6.934;2022-09-09T01:37:49;15.10;99.90
35027;DHT22;60696;51.426;6.934;2022-09-09T01:40:15;15.10;99.90
35027;DHT22;60696;51.426;6.934;2022-09-09T01:42:41;15.10;99.90
35027;DHT22;60696;51.426;6.934;2022-09-09T01:45:07;15.20;99.90
35027;DHT22;60696;51.426;6.934;2022-09-09T01:47:32;15.20;99.90
35027;DHT22;60696;51.426;6.934;2022-09-09T01:49:59;15.10;99.90
35027;DHT22;60696;51.426;6.934;2022-09-09T01:52:25;15.10;99.90
35027;DHT22;60696;51.426;6.934;2022-09-09T01:54:51;15.10;99.90
35027;DHT22;60696;51.426;6.934;2022-09-09T01:57:25;15.10;99.90
35027;DHT22;60696;51.426;6.934;2022-09-09T02:02:35;15.00;99.90
35027;DHT22;60696;51.426;6.934;2022-09-09T02:07:50;15.00;99.90
35027;DHT22;60696;51.426;6.934;2022-09-09T02:10:20;15.00;99.90
35027;DHT22;60696;51.426;6.934;2022-09-09T02:12:54;15.00;99.90
35027;DHT22;60696;51.426;6.934;2022-09-09T02:17:57;15.00;99.90
35027;DHT22;60696;51.426;6.934;2022-09-09T02:20:24;15.00;99.90
35027;DHT22;60696;51.426;6.934;2022-09-09T02:22:53;15.10;99.90
35027;DHT22;60696;51.426;6.934;2022-09-09T02:25:22;15.00;99.90
35027;DHT22;60696;51.426;6.934;2022-09-09T02:27:50;15.10;99.90
35027;DHT22;60696;51.426;6.934;2022-09-09T02:30:17;15.00;99.90
35027;DHT22;60696;51.426;6.934;2022-09-09T02:32:44;15.10;99.90
35027;DHT22;60696;51.426;6.934;2022-09-09T02:35:14;15.20;99.90
35027;DHT22;60696;51.426;6.934;2022-09-09T02:37:42;15.20;99.90
35027;DHT22;60696;51.426;6.934;2022-09-09T02:40:13;15.20;99.90
35027;DHT22;60696;51.426;6.934;2022-09-09T02:42:45;15.20;99.90
35027;DHT22;60696;51.426;6.934;2022-09-09T02:45:14;15.20;99.90
35027;DHT22;60696;51.426;6.934;2022-09-09T02:47:59;15.20;99.90
35027;DHT22;60696;51.426;6.934;2022-09-09T02:50:40;15.30;99.90
35027;DHT22;60696;51.426;6.934;2022-09-09T02:58:04;15.40;99.90
35027;DHT22;60696;51.426;6.934;2022-09-09T03:00:31;15.40;99.90
35027;DHT22;60696;51.426;6.934;2022-09-09T03:02:58;15.40;99.90
35027;DHT22;60696;51.426;6.934;2022-09-09T03:05:23;15.40;99.90
35027;DHT22;60696;51.426;6.934;2022-09-09T03:07:49;15.40;99.90
35027;DHT22;60696;51.426;6.934;2022-09-09T03:10:16;15.30;99.90
35027;DHT22;60696;51.426;6.934;2022-09-09T03:12:42;15.30;99.90
35027;DHT22;60696;51.426;6.934;2022-09-09T03:15:08;15.30;99.90
35027;DHT22;60696;51.426;6.934;2022-09-09T03:17:35;15.40;99.90
35027;DHT22;60696;51.426;6.934;2022-09-09T03:20:02;15.40;99.90
35027;DHT22;60696;51.426;6.934;2022-09-09T03:22:28;15.40;99.90
35027;DHT22;60696;51.426;6.934;2022-09-09T03:24:53;15.40;99.90
35027;DHT22;60696;51.426;6.934;2022-09-09T03:27:19;15.40;99.90
35027;DHT22;60696;51.426;6.934;2022-09-09T03:29:46;15.30;99.90
35027;DHT22;60696;51.426;6.934;2022-09-09T03:32:12;15.30;99.90
35027;DHT22;60696;51.426;6.934;2022-09-09T03:34:38;15.30;99.90
35027;DHT22;60696;51.426;6.934;2022-09-09T03:37:05;15.30;99.90
35027;DHT22;60696;51.426;6.934;2022-09-09T03:39:31;15.30;99.90
35027;DHT22;60696;51.426;6.934;2022-09-09T03:41:57;15.30;99.90
35027;DHT22;60696;51.426;6.934;2022-09-09T03:44:22;15.30;99.90
35027;DHT22;60696;51.426;6.934;2022-09-09T03:46:48;15.30;99.90
35027;DHT22;60696;51.426;6.934;2022-09-09T03:49:13;15.30;99.90
35027;DHT22;60696;51.426;6.934;2022-09-09T03:51:39;15.30;99.90
35027;DHT22;60696;51.426;6.934;2022-09-09T03:54:05;15.40;99.90
35027;DHT22;60696;51.426;6.934;2022-09-09T03:56:34;15.30;99.90
35027;DHT22;60696;51.426;6.934;2022-09-09T03:58:59;15.30;99.90
35027;DHT22;60696;51.426;6.934;2022-09-09T04:01:25;15.30;99.90
35027;DHT22;60696;51.426;6.934;2022-09-09T04:03:51;15.30;99.90
35027;DHT22;60696;51.426;6.934;2022-09-09T04:06:18;15.30;99.90
35027;DHT22;60696;51.426;6.934;2022-09-09T04:08:45;15.30;99.90
35027;DHT22;60696;51.426;6.934;2022-09-09T04:11:14;15.30;99.90
35027;DHT22;60696;51.426;6.934;2022-09-09T04:13:41;15.20;99.90
35027;DHT22;60696;51.426;6.934;2022-09-09T04:16:08;15.20;99.90
35027;DHT22;60696;51.426;6.934;2022-09-09T04:18:34;15.20;99.90
35027;DHT22;60696;51.426;6.934;2022-09-09T04:21:00;15.20;99.90
35027;DHT22;60696;51.426;6.934;2022-09-09T04:23:27;15.10;99.90
35027;DHT22;60696;51.426;6.934;2022-09-09T04:25:57;15.20;99.90
35027;DHT22;60696;51.426;6.934;2022-09-09T04:28:25;15.10;99.90
35027;DHT22;60696;51.426;6.934;2022-09-09T04:30:51;15.10;99.90
35027;DHT22;60696;51.426;6.934;2022-09-09T04:33:18;15.10;99.90
35027;DHT22;60696;51.426;6.934;2022-09-09T04:35:45;15.40;99.90
35027;DHT22;60696;51.426;6.934;2022-09-09T04:38:12;15.70;99.90
35027;DHT22;60696;51.426;6.934;2022-09-09T04:40:37;15.90;99.90
35027;DHT22;60696;51.426;6.934;2022-09-09T04:43:05;16.10;99.90
35027;DHT22;60696;51.426;6.934;2022-09-09T04:45:31;16.50;99.90
35027;DHT22;60696;51.426;6.934;2022-09-09T04:47:57;16.60;99.90
35027;DHT22;60696;51.426;6.934;2022-09-09T04:50:23;16.70;99.90
35027;DHT22;60696;51.426;6.934;2022-09-09T04:52:48;16.40;99.90
35027;DHT22;60696;51.426;6.934;2022-09-09T04:55:14;16.30;99.90
35027;DHT22;60696;51.426;6.934;2022-09-09T04:57:40;16.20;99.90
35027;DHT22;60696;51.426;6.934;2022-09-09T05:00:07;16.30;99.90
35027;DHT22;60696;51.426;6.934;2022-09-09T05:02:36;16.50;99.90
35027;DHT22;60696;51.426;6.934;2022-09-09T05:05:03;16.60;99.90
35027;DHT22;60696;51.426;6.934;2022-09-09T05:07:29;16.50;99.90
35027;DHT22;60696;51.426;6.934;2022-09-09T05:09:56;16.60;99.90
35027;DHT22;60696;51.426;6.934;2022-09-09T05:12:22;16.90;99.90
35027;DHT22;60696;51.426;6.934;2022-09-09T05:14:51;17.20;99.90
35027;DHT22;60696;51.426;6.934;2022-09-09T05:17:16;17.10;99.90
35027;DHT22;60696;51.426;6.934;2022-09-09T05:19:43;16.90;99.90
35027;DHT22;60696;51.426;6.934;2022-09-09T05:22:09;17.30;99.90
35027;DHT22;60696;51.426;6.934;2022-09-09T05:24:37;17.20;99.90
35027;DHT22;60696;51.426;6.934;2022-09-09T05:27:03;17.20;99.90
35027;DHT22;60696;51.426;6.934;2022-09-09T05:29:31;17.40;99.90
35027;DHT22;60696;51.426;6.934;2022-09-09T05:31:59;17.30;99.90
35027;DHT22;60696;51.426;6.934;2022-09-09T05:34:24;17.10;99.90
35027;DHT22;60696;51.426;6.934;2022-09-09T05:36:50;16.80;99.90
35027;DHT22;60696;51.426;6.934;2022-09-09T05:39:17;16.40;99.90
35027;DHT22;60696;51.426;6.934;2022-09-09T05:41:43;16.20;99.90
35027;DHT22;60696;51.426;6.934;2022-09-09T05:44:09;16.20;99.90
35027;DHT22;60696;51.426;6.934;2022-09-09T05:46:34;16.10;99.90
35027;DHT22;60696;51.426;6.934;2022-09-09T05:49:02;16.10;99.90
35027;DHT22;60696;51.426;6.934;2022-09-09T05:51:29;16.00;99.90
35027;DHT22;60696;51.426;6.934;2022-09-09T05:53:57;16.00;99.90
35027;DHT22;60696;51.426;6.934;2022-09-09T05:56:28;16.00;99.90
35027;DHT22;60696;51.426;6.934;2022-09-09T05:58:55;16.00;99.90
35027;DHT22;60696;51.426;6.934;2022-09-09T06:01:32;16.00;99.90
35027;DHT22;60696;51.426;6.934;2022-09-09T06:03:58;16.00;99.90
35027;DHT22;60696;51.426;6.934;2022-09-09T06:06:27;16.10;99.90
35027;DHT22;60696;51.426;6.934;2022-09-09T06:08:54;16.20;99.90
35027;DHT22;60696;51.426;6.934;2022-09-09T06:11:27;16.30;99.90
35027;DHT22;60696;51.426;6.934;2022-09-09T06:13:56;16.40;99.90
35027;DHT22;60696;51.426;6.934;2022-09-09T06:16:24;16.40;99.90
35027;DHT22;60696;51.426;6.934;2022-09-09T06:18:51;16.40;99.90
35027;DHT22;60696;51.426;6.934;2022-09-09T06:21:19;16.50;99.90
35027;DHT22;60696;51.426;6.934;2022-09-09T06:23:46;16.50;99.90
35027;DHT22;60696;51.426;6.934;2022-09-09T06:26:18;16.60;99.90
35027;DHT22;60696;51.426;6.934;2022-09-09T06:28:48;16.60;99.90
35027;DHT22;60696;51.426;6.934;2022-09-09T06:31:16;16.60;99.90
35027;DHT22;60696;51.426;6.934;2022-09-09T06:33:49;16.60;99.90
35027;DHT22;60696;51.426;6.934;2022-09-09T06:36:17;16.70;99.90
35027;DHT22;60696;51.426;6.934;2022-09-09T06:38:44;16.70;99.90
35027;DHT22;60696;51.426;6.934;2022-09-09T06:41:11;16.80;99.90
35027;DHT22;60696;51.426;6.934;2022-09-09T06:43:37;16.80;99.90
35027;DHT22;60696;51.426;6.934;2022-09-09T06:46:16;16.70;99.90
35027;DHT22;60696;51.426;6.934;2022-09-09T06:48:43;16.70;99.90
35027;DHT22;60696;51.426;6.934;2022-09-09T06:51:11;16.80;99.90
35027;DHT22;60696;51.426;6.934;2022-09-09T06:53:38;16.80;99.90
35027;DHT22;60696;51.426;6.934;2022-09-09T06:58:45;17.00;99.90
35027;DHT22;60696;51.426;6.934;2022-09-09T07:01:19;17.10;99.90
35027;DHT22;60696;51.426;6.934;2022-09-09T07:03:47;17.30;99.90
35027;DHT22;60696;51.426;6.934;2022-09-09T07:06:15;17.60;99.90
35027;DHT22;60696;51.426;6.934;2022-09-09T07:08:43;17.60;99.90
35027;DHT22;60696;51.426;6.934;2022-09-09T07:11:08;17.90;99.90
35027;DHT22;60696;51.426;6.934;2022-09-09T07:13:35;18.50;99.90
35027;DHT22;60696;51.426;6.934;2022-09-09T07:16:08;19.10;99.90
35027;DHT22;60696;51.426;6.934;2022-09-09T07:18:35;19.50;99.90
35027;DHT22;60696;51.426;6.934;2022-09-09T07:21:02;20.00;99.90
35027;DHT22;60696;51.426;6.934;2022-09-09T07:23:29;20.40;99.90
35027;DHT22;60696;51.426;6.934;2022-09-09T07:25:58;21.70;99.90
35027;DHT22;60696;51.426;6.934;2022-09-09T07:28:25;22.80;99.90
35027;DHT22;60696;51.426;6.934;2022-09-09T07:30:56;23.50;99.90
35027;DHT22;60696;51.426;6.934;2022-09-09T07:33:22;24.60;99.90
35027;DHT22;60696;51.426;6.934;2022-09-09T07:35:48;24.80;99.90
35027;DHT22;60696;51.426;6.934;2022-09-09T07:38:14;25.30;99.90
35027;DHT22;60696;51.426;6.934;2022-09-09T07:40:42;24.90;99.90
35027;DHT22;60696;51.426;6.934;2022-09-09T07:43:07;23.40;99.90
35027;DHT22;60696;51.426;6.934;2022-09-09T07:45:34;22.30;99.90
35027;DHT22;60696;51.426;6.934;2022-09-09T07:48:01;21.80;99.90
35027;DHT22;60696;51.426;6.934;2022-09-09T07:50:27;21.80;99.90
35027;DHT22;60696;51.426;6.934;2022-09-09T07:52:53;22.20;99.90
35027;DHT22;60696;51.426;6.934;2022-09-09T07:55:20;22.40;99.90
35027;DHT22;60696;51.426;6.934;2022-09-09T07:57:46;23.20;99.90
35027;DHT22;60696;51.426;6.934;2022-09-09T08:00:12;23.50;99.90
35027;DHT22;60696;51.426;6.934;2022-09-09T08:02:40;24.20;99.90
35027;DHT22;60696;51.426;6.934;2022-09-09T08:05:06;24.00;99.90
35027;DHT22;60696;51.426;6.934;2022-09-09T08:07:32;23.50;99.90
35027;DHT22;60696;51.426;6.934;2022-09-09T08:09:57;23.10;99.90
35027;DHT22;60696;51.426;6.934;2022-09-09T08:12:23;22.10;99.90
35027;DHT22;60696;51.426;6.934;2022-09-09T08:14:49;21.50;99.90
35027;DHT22;60696;51.426;6.934;2022-09-09T08:17:16;21.10;99.90
35027;DHT22;60696;51.426;6.934;2022-09-09T08:19:42;21.60;99.90
35027;DHT22;60696;51.426;6.934;2022-09-09T08:22:08;22.30;99.90
35027;DHT22;60696;51.426;6.934;2022-09-09T08:24:34;23.50;99.90
35027;DHT22;60696;51.426;6.934;2022-09-09T08:26:59;24.70;99.90
35027;DHT22;60696;51.426;6.934;2022-09-09T08:29:25;24.40;99.90
35027;DHT22;60696;51.426;6.934;2022-09-09T08:31:56;24.10;99.90
35027;DHT22;60696;51.426;6.934;2022-09-09T08:34:23;25.50;99.90
35027;DHT22;60696;51.426;6.934;2022-09-09T08:36:50;26.20;99.50
35027;DHT22;60696;51.426;6.934;2022-09-09T08:39:18;26.50;98.30
35027;DHT22;60696;51.426;6.934;2022-09-09T08:52:39;27.90;87.00
35027;DHT22;60696;51.426;6.934;2022-09-09T09:09:38;25.30;91.90
35027;DHT22;60696;51.426;6.934;2022-09-09T09:12:17;23.50;95.30
35027;DHT22;60696;51.426;6.934;2022-09-09T09:14:43;23.50;98.50
35027;DHT22;60696;51.426;6.934;2022-09-09T09:17:13;22.70;98.40
35027;DHT22;60696;51.426;6.934;2022-09-09T09:19:41;22.30;99.90
35027;DHT22;60696;51.426;6.934;2022-09-09T09:27:34;20.90;99.90
35027;DHT22;60696;51.426;6.934;2022-09-09T09:30:12;21.00;99.90
35027;DHT22;60696;51.426;6.934;2022-09-09T09:32:42;20.80;99.90
35027;DHT22;60696;51.426;6.934;2022-09-09T09:35:13;20.70;99.90
35027;DHT22;60696;51.426;6.934;2022-09-09T09:37:40;20.40;99.90
35027;DHT22;60696;51.426;6.934;2022-09-09T09:40:20;20.30;99.90
35027;DHT22;60696;51.426;6.934;2022-09-09T09:42:55;20.10;99.90
35027;DHT22;60696;51.426;6.934;2022-09-09T09:45:29;20.00;99.90
35027;DHT22;60696;51.426;6.934;2022-09-09T09:48:02;20.10;99.90
35027;DHT22;60696;51.426;6.934;2022-09-09T09:50:29;20.10;99.90
35027;DHT22;60696;51.426;6.934;2022-09-09T09:52:57;20.00;99.90
35027;DHT22;60696;51.426;6.934;2022-09-09T09:55:24;20.00;99.90
35027;DHT22;60696;51.426;6.934;2022-09-09T09:57:50;20.00;99.90
35027;DHT22;60696;51.426;6.934;2022-09-09T10:00:19;19.90;99.90
35027;DHT22;60696;51.426;6.934;2022-09-09T10:02:46;19.80;99.90
35027;DHT22;60696;51.426;6.934;2022-09-09T10:07:43;19.70;99.90
35027;DHT22;60696;51.426;6.934;2022-09-09T10:10:25;19.60;99.90
35027;DHT22;60696;51.426;6.934;2022-09-09T10:13:11;20.50;99.90
35027;DHT22;60696;51.426;6.934;2022-09-09T10:15:59;22.70;99.90
35027;DHT22;60696;51.426;6.934;2022-09-09T10:27:03;25.90;90.30
35027;DHT22;60696;51.426;6.934;2022-09-09T10:35:34;22.20;99.50
35027;DHT22;60696;51.426;6.934;2022-09-09T10:40:58;21.20;99.90
35027;DHT22;60696;51.426;6.934;2022-09-09T10:43:51;21.10;99.90
35027;DHT22;60696;51.426;6.934;2022-09-09T10:54:24;21.30;99.90
35027;DHT22;60696;51.426;6.934;2022-09-09T10:56:58;21.10;99.90
35027;DHT22;60696;51.426;6.934;2022-09-09T10:59:28;20.90;99.90
35027;DHT22;60696;51.426;6.934;2022-09-09T11:02:27;20.90;99.90
35027;DHT22;60696;51.426;6.934;2022-09-09T11:05:15;20.90;99.90
35027;DHT22;60696;51.426;6.934;2022-09-09T11:08:02;20.70;99.90
35027;DHT22;60696;51.426;6.934;2022-09-09T11:10:46;20.50;99.90
35027;DHT22;60696;51.426;6.934;2022-09-09T11:15:57;19.90;99.90
35027;DHT22;60696;51.426;6.934;2022-09-09T11:18:25;19.80;99.90
35027;DHT22;60696;51.426;6.934;2022-09-09T11:20:59;20.20;99.90
35027;DHT22;60696;51.426;6.934;2022-09-09T11:23:38;20.60;99.90
35027;DHT22;60696;51.426;6.934;2022-09-09T11:26:10;21.10;99.90
35027;DHT22;60696;51.426;6.934;2022-09-09T11:31:38;21.50;99.90
35027;DHT22;60696;51.426;6.934;2022-09-09T11:34:34;21.40;99.90
35027;DHT22;60696;51.426;6.934;2022-09-09T11:39:52;21.20;99.90
35027;DHT22;60696;51.426;6.934;2022-09-09T11:42:24;21.10;99.90
35027;DHT22;60696;51.426;6.934;2022-09-09T11:44:51;21.00;99.90
35027;DHT22;60696;51.426;6.934;2022-09-09T11:47:29;20.60;99.90
35027;DHT22;60696;51.426;6.934;2022-09-09T11:50:37;20.30;99.90
35027;DHT22;60696;51.426;6.934;2022-09-09T11:53:23;20.10;99.90
35027;DHT22;60696;51.426;6.934;2022-09-09T11:56:07;20.00;99.90
35027;DHT22;60696;51.426;6.934;2022-09-09T11:58:41;19.90;99.90
35027;DHT22;60696;51.426;6.934;2022-09-09T12:01:37;20.00;99.90
35027;DHT22;60696;51.426;6.934;2022-09-09T12:09:50;21.00;99.90
35027;DHT22;60696;51.426;6.934;2022-09-09T12:12:37;21.10;99.90
35027;DHT22;60696;51.426;6.934;2022-09-09T12:15:19;21.40;99.90
35027;DHT22;60696;51.426;6.934;2022-09-09T12:17:58;21.20;99.90
35027;DHT22;60696;51.426;6.934;2022-09-09T12:28:14;20.20;99.90
35027;DHT22;60696;51.426;6.934;2022-09-09T12:33:37;19.90;99.90
35027;DHT22;60696;51.426;6.934;2022-09-09T12:36:11;20.20;99.90
35027;DHT22;60696;51.426;6.934;2022-09-09T12:38:40;20.40;99.90
35027;DHT22;60696;51.426;6.934;2022-09-09T12:41:06;20.80;99.90
35027;DHT22;60696;51.426;6.934;2022-09-09T12:43:44;21.10;99.90
35027;DHT22;60696;51.426;6.934;2022-09-09T12:46:28;20.90;99.90
35027;DHT22;60696;51.426;6.934;2022-09-09T12:48:57;20.30;99.90
35027;DHT22;60696;51.426;6.934;2022-09-09T12:51:29;20.20;99.90
35027;DHT22;60696;51.426;6.934;2022-09-09T12:53:56;20.20;99.90
35027;DHT22;60696;51.426;6.934;2022-09-09T12:56:29;20.60;99.90
35027;DHT22;60696;51.426;6.934;2022-09-09T12:58:57;20.40;99.90
35027;DHT22;60696;51.426;6.934;2022-09-09T13:01:31;20.30;99.90
35027;DHT22;60696;51.426;6.934;2022-09-09T13:03:59;20.10;99.90
35027;DHT22;60696;51.426;6.934;2022-09-09T13:06:27;19.90;99.90
35027;DHT22;60696;51.426;6.934;2022-09-09T13:08:54;19.60;99.90
35027;DHT22;60696;51.426;6.934;2022-09-09T13:11:30;19.40;99.90
35027;DHT22;60696;51.426;6.934;2022-09-09T13:13:57;19.40;99.90
35027;DHT22;60696;51.426;6.934;2022-09-09T13:16:29;19.30;99.90
35027;DHT22;60696;51.426;6.934;2022-09-09T13:19:06;19.10;99.90
35027;DHT22;60696;51.426;6.934;2022-09-09T13:21:37;19.10;99.90
35027;DHT22;60696;51.426;6.934;2022-09-09T13:27:03;19.20;99.90
35027;DHT22;60696;51.426;6.934;2022-09-09T13:29:31;19.20;99.90
35027;DHT22;60696;51.426;6.934;2022-09-09T13:32:12;19.30;99.90
35027;DHT22;60696;51.426;6.934;2022-09-09T13:34:51;19.10;99.90
35027;DHT22;60696;51.426;6.934;2022-09-09T13:37:36;19.10;99.90
35027;DHT22;60696;51.426;6.934;2022-09-09T13:40:03;19.20;99.90
35027;DHT22;60696;51.426;6.934;2022-09-09T13:42:33;19.40;99.90
35027;DHT22;60696;51.426;6.934;2022-09-09T13:45:01;19.40;99.90
35027;DHT22;60696;51.426;6.934;2022-09-09T13:47:32;19.40;99.90
35027;DHT22;60696;51.426;6.934;2022-09-09T13:50:09;19.50;99.90
35027;DHT22;60696;51.426;6.934;2022-09-09T13:52:35;19.60;99.90
35027;DHT22;60696;51.426;6.934;2022-09-09T13:55:00;19.60;99.90
35027;DHT22;60696;51.426;6.934;2022-09-09T13:57:26;19.70;99.90
35027;DHT22;60696;51.426;6.934;2022-09-09T13:59:53;19.80;99.90
35027;DHT22;60696;51.426;6.934;2022-09-09T14:02:20;19.70;99.90
35027;DHT22;60696;51.426;6.934;2022-09-09T14:04:49;19.80;99.90
35027;DHT22;60696;51.426;6.934;2022-09-09T14:07:20;19.70;99.90
35027;DHT22;60696;51.426;6.934;2022-09-09T14:09:46;19.90;99.90
35027;DHT22;60696;51.426;6.934;2022-09-09T14:12:16;20.00;99.90
35027;DHT22;60696;51.426;6.934;2022-09-09T14:14:42;20.10;99.90
35027;DHT22;60696;51.426;6.934;2022-09-09T14:17:08;19.90;99.90
35027;DHT22;60696;51.426;6.934;2022-09-09T14:19:34;19.50;99.90
35027;DHT22;60696;51.426;6.934;2022-09-09T14:22:00;19.40;99.90
35027;DHT22;60696;51.426;6.934;2022-09-09T14:24:26;19.40;99.90
35027;DHT22;60696;51.426;6.934;2022-09-09T14:26:53;19.50;99.90
35027;DHT22;60696;51.426;6.934;2022-09-09T14:29:19;19.40;99.90
35027;DHT22;60696;51.426;6.934;2022-09-09T14:31:45;19.50;99.90
35027;DHT22;60696;51.426;6.934;2022-09-09T14:34:11;19.70;99.90
35027;DHT22;60696;51.426;6.934;2022-09-09T14:36:37;19.80;99.90
35027;DHT22;60696;51.426;6.934;2022-09-09T14:39:03;19.70;99.90
35027;DHT22;60696;51.426;6.934;2022-09-09T14:41:29;19.70;99.90
35027;DHT22;60696;51.426;6.934;2022-09-09T14:43:55;19.70;99.90
35027;DHT22;60696;51.426;6.934;2022-09-09T14:46:21;19.60;99.90
35027;DHT22;60696;51.426;6.934;2022-09-09T14:48:47;19.50;99.90
35027;DHT22;60696;51.426;6.934;2022-09-09T14:51:21;19.30;99.90
35027;DHT22;60696;51.426;6.934;2022-09-09T14:53:54;19.20;99.90
35027;DHT22;60696;51.426;6.934;2022-09-09T14:56:22;18.90;99.90
35027;DHT22;60696;51.426;6.934;2022-09-09T14:58:49;18.20;99.90
35027;DHT22;60696;51.426;6.934;2022-09-09T15:01:18;17.70;99.90
35027;DHT22;60696;51.426;6.934;2022-09-09T15:03:50;17.50;99.90
35027;DHT22;60696;51.426;6.934;2022-09-09T15:06:17;17.10;99.90
35027;DHT22;60696;51.426;6.934;2022-09-09T15:08:45;17.10;99.90
35027;DHT22;60696;51.426;6.934;2022-09-09T15:11:13;16.90;99.90
35027;DHT22;60696;51.426;6.934;2022-09-09T15:13:40;16.80;99.90
35027;DHT22;60696;51.426;6.934;2022-09-09T15:16:07;16.80;99.90
35027;DHT22;60696;51.426;6.934;2022-09-09T15:18:34;16.70;99.90
35027;DHT22;60696;51.426;6.934;2022-09-09T15:21:03;16.80;99.90
35027;DHT22;60696;51.426;6.934;2022-09-09T15:23:34;17.20;99.90
35027;DHT22;60696;51.426;6.934;2022-09-09T15:25:59;17.10;99.90
35027;DHT22;60696;51.426;6.934;2022-09-09T15:28:25;17.00;99.90
35027;DHT22;60696;51.426;6.934;2022-09-09T15:30:52;17.00;99.90
35027;DHT22;60696;51.426;6.934;2022-09-09T15:33:20;16.80;99.90
35027;DHT22;60696;51.426;6.934;2022-09-09T15:35:46;16.60;99.90
35027;DHT22;60696;51.426;6.934;2022-09-09T15:38:12;16.60;99.90
35027;DHT22;60696;51.426;6.934;2022-09-09T15:40:42;16.60;99.90
35027;DHT22;60696;51.426;6.934;2022-09-09T15:43:08;16.60;99.90
35027;DHT22;60696;51.426;6.934;2022-09-09T15:45:35;16.40;99.90
35027;DHT22;60696;51.426;6.934;2022-09-09T15:48:01;16.50;99.90
35027;DHT22;60696;51.426;6.934;2022-09-09T15:50:27;16.50;99.90
35027;DHT22;60696;51.426;6.934;2022-09-09T15:52:58;16.60;99.90
35027;DHT22;60696;51.426;6.934;2022-09-09T15:55:24;16.60;99.90
35027;DHT22;60696;51.426;6.934;2022-09-09T15:57:50;16.70;99.90
35027;DHT22;60696;51.426;6.934;2022-09-09T16:00:18;16.70;99.90
35027;DHT22;60696;51.426;6.934;2022-09-09T16:02:44;16.80;99.90
35027;DHT22;60696;51.426;6.934;2022-09-09T16:05:09;17.00;99.90
35027;DHT22;60696;51.426;6.934;2022-09-09T16:07:35;16.80;99.90
35027;DHT22;60696;51.426;6.934;2022-09-09T16:10:01;16.90;99.90
35027;DHT22;60696;51.426;6.934;2022-09-09T16:12:27;16.90;99.90
35027;DHT22;60696;51.426;6.934;2022-09-09T16:14:53;17.00;99.90
35027;DHT22;60696;51.426;6.934;2022-09-09T16:17:19;16.90;99.90
35027;DHT22;60696;51.426;6.934;2022-09-09T16:19:45;17.00;99.90
35027;DHT22;60696;51.426;6.934;2022-09-09T16:22:11;16.90;99.90
35027;DHT22;60696;51.426;6.934;2022-09-09T16:24:37;16.80;99.90
35027;DHT22;60696;51.426;6.934;2022-09-09T16:27:02;16.80;99.90
35027;DHT22;60696;51.426;6.934;2022-09-09T16:29:28;16.80;99.90
35027;DHT22;60696;51.426;6.934;2022-09-09T16:31:54;16.80;99.90
35027;DHT22;60696;51.426;6.934;2022-09-09T16:34:20;16.70;99.90
35027;DHT22;60696;51.426;6.934;2022-09-09T16:36:47;16.70;99.90
35027;DHT22;60696;51.426;6.934;2022-09-09T16:39:22;16.70;99.90
35027;DHT22;60696;51.426;6.934;2022-09-09T16:41:48;16.70;99.90
35027;DHT22;60696;51.426;6.934;2022-09-09T16:44:16;16.70;99.90
35027;DHT22;60696;51.426;6.934;2022-09-09T16:46:44;16.80;99.90
35027;DHT22;60696;51.426;6.934;2022-09-09T16:49:12;16.70;99.90
35027;DHT22;60696;51.426;6.934;2022-09-09T16:51:40;16.80;99.90
35027;DHT22;60696;51.426;6.934;2022-09-09T16:54:08;16.60;99.90
35027;DHT22;60696;51.426;6.934;2022-09-09T16:56:36;16.60;99.90
35027;DHT22;60696;51.426;6.934;2022-09-09T16:59:05;16.60;99.90
35027;DHT22;60696;51.426;6.934;2022-09-09T17:01:33;16.70;99.90
35027;DHT22;60696;51.426;6.934;2022-09-09T17:04:02;16.60;99.90
35027;DHT22;60696;51.426;6.934;2022-09-09T17:06:29;16.40;99.90
35027;DHT22;60696;51.426;6.934;2022-09-09T17:08:59;16.40;99.90
35027;DHT22;60696;51.426;6.934;2022-09-09T17:11:26;16.30;99.90
35027;DHT22;60696;51.426;6.934;2022-09-09T17:13:53;16.20;99.90
35027;DHT22;60696;51.426;6.934;2022-09-09T17:16:21;16.20;99.90
35027;DHT22;60696;51.426;6.934;2022-09-09T17:18:48;16.10;99.90
35027;DHT22;60696;51.426;6.934;2022-09-09T17:21:16;16.20;99.90
35027;DHT22;60696;51.426;6.934;2022-09-09T17:23:43;16.20;99.90
35027;DHT22;60696;51.426;6.934;2022-09-09T17:26:11;16.20;99.90
35027;DHT22;60696;51.426;6.934;2022-09-09T17:28:38;16.20;99.90
35027;DHT22;60696;51.426;6.934;2022-09-09T17:31:05;16.20;99.90
35027;DHT22;60696;51.426;6.934;2022-09-09T17:33:36;16.10;99.90
35027;DHT22;60696;51.426;6.934;2022-09-09T17:36:14;16.10;99.90
35027;DHT22;60696;51.426;6.934;2022-09-09T17:38:41;16.10;99.90
35027;DHT22;60696;51.426;6.934;2022-09-09T17:41:09;16.10;99.90
35027;DHT22;60696;51.426;6.934;2022-09-09T17:43:35;16.10;99.90
35027;DHT22;60696;51.426;6.934;2022-09-09T17:46:22;16.10;99.90
35027;DHT22;60696;51.426;6.934;2022-09-09T17:48:50;16.10;99.90
35027;DHT22;60696;51.426;6.934;2022-09-09T17:51:19;16.10;99.90
35027;DHT22;60696;51.426;6.934;2022-09-09T17:53:47;16.10;99.90
35027;DHT22;60696;51.426;6.934;2022-09-09T17:56:16;16.10;99.90